sensor_id;sensor_type;location;lat;lon;timestamp;temperature;humidity
41060;DHT22;26811;53.160;8.202;2022-08-19T00:02:14;16.70;99.90
41060;DHT22;26811;53.160;8.202;2022-08-19T00:07:14;16.70;99.90
41060;DHT22;26811;53.160;8.202;2022-08-19T00:12:15;16.70;99.90
41060;DHT22;26811;53.160;8.202;2022-08-19T00:17:16;16.70;99.90
41060;DHT22;26811;53.160;8.202;2022-08-19T00:22:16;16.70;99.90
41060;DHT22;26811;53.160;8.202;2022-08-19T00:27:18;16.60;99.90
41060;DHT22;26811;53.160;8.202;2022-08-19T00:32:19;16.50;99.90
41060;DHT22;26811;53.160;8.202;2022-08-19T00:37:23;16.40;99.90
41060;DHT22;26811;53.160;8.202;2022-08-19T00:42:25;16.30;99.90
41060;DHT22;26811;53.160;8.202;2022-08-19T00:47:28;16.30;99.90
41060;DHT22;26811;53.160;8.202;2022-08-19T00:52:33;16.20;99.90
41060;DHT22;26811;53.160;8.202;2022-08-19T00:57:38;16.20;99.90
41060;DHT22;26811;53.160;8.202;2022-08-19T01:02:40;16.10;99.90
41060;DHT22;26811;53.160;8.202;2022-08-19T01:07:42;16.10;99.90
41060;DHT22;26811;53.160;8.202;2022-08-19T01:12:42;16.10;99.90
41060;DHT22;26811;53.160;8.202;2022-08-19T01:17:45;16.00;99.90
41060;DHT22;26811;53.160;8.202;2022-08-19T01:22:57;16.00;99.90
41060;DHT22;26811;53.160;8.202;2022-08-19T01:27:58;16.00;99.90
41060;DHT22;26811;53.160;8.202;2022-08-19T01:32:59;15.90;99.90
41060;DHT22;26811;53.160;8.202;2022-08-19T01:38:09;15.90;99.90
41060;DHT22;26811;53.160;8.202;2022-08-19T01:43:10;16.00;99.90
41060;DHT22;26811;53.160;8.202;2022-08-19T01:48:11;15.90;99.90
41060;DHT22;26811;53.160;8.202;2022-08-19T01:53:12;15.80;99.90
41060;DHT22;26811;53.160;8.202;2022-08-19T01:58:18;15.80;99.90
41060;DHT22;26811;53.160;8.202;2022-08-19T02:03:19;15.70;99.90
41060;DHT22;26811;53.160;8.202;2022-08-19T02:08:20;15.60;99.90
41060;DHT22;26811;53.160;8.202;2022-08-19T02:13:20;15.60;99.90
41060;DHT22;26811;53.160;8.202;2022-08-19T02:18:21;15.50;99.90
41060;DHT22;26811;53.160;8.202;2022-08-19T02:23:21;15.40;99.90
41060;DHT22;26811;53.160;8.202;2022-08-19T02:28:22;15.40;99.90
41060;DHT22;26811;53.160;8.202;2022-08-19T02:33:22;15.40;99.90
41060;DHT22;26811;53.160;8.202;2022-08-19T02:38:23;15.40;99.90
41060;DHT22;26811;53.160;8.202;2022-08-19T02:43:28;15.30;99.90
41060;DHT22;26811;53.160;8.202;2022-08-19T02:48:28;15.30;99.90
41060;DHT22;26811;53.160;8.202;2022-08-19T02:53:29;15.20;99.90
41060;DHT22;26811;53.160;8.202;2022-08-19T02:58:30;15.10;99.90
41060;DHT22;26811;53.160;8.202;2022-08-19T03:03:30;15.10;99.90
41060;DHT22;26811;53.160;8.202;2022-08-19T03:08:32;15.10;99.90
41060;DHT22;26811;53.160;8.202;2022-08-19T03:13:32;15.00;99.90
41060;DHT22;26811;53.160;8.202;2022-08-19T03:18:33;15.00;99.90
41060;DHT22;26811;53.160;8.202;2022-08-19T03:23:34;15.10;99.90
41060;DHT22;26811;53.160;8.202;2022-08-19T03:28:35;15.10;99.90
41060;DHT22;26811;53.160;8.202;2022-08-19T03:33:38;15.10;99.90
41060;DHT22;26811;53.160;8.202;2022-08-19T03:38:42;15.10;99.90
41060;DHT22;26811;53.160;8.202;2022-08-19T03:43:44;15.00;99.90
41060;DHT22;26811;53.160;8.202;2022-08-19T03:48:52;15.00;99.90
41060;DHT22;26811;53.160;8.202;2022-08-19T03:53:57;14.80;99.90
41060;DHT22;26811;53.160;8.202;2022-08-19T03:59:00;14.70;99.90
41060;DHT22;26811;53.160;8.202;2022-08-19T04:04:01;14.60;99.90
41060;DHT22;26811;53.160;8.202;2022-08-19T04:09:04;14.60;99.90
41060;DHT22;26811;53.160;8.202;2022-08-19T04:14:05;14.60;99.90
41060;DHT22;26811;53.160;8.202;2022-08-19T04:19:06;14.60;99.90
41060;DHT22;26811;53.160;8.202;2022-08-19T04:24:12;14.50;99.90
41060;DHT22;26811;53.160;8.202;2022-08-19T04:29:15;14.40;99.90
41060;DHT22;26811;53.160;8.202;2022-08-19T04:34:18;14.40;99.90
41060;DHT22;26811;53.160;8.202;2022-08-19T04:39:30;14.50;99.90
41060;DHT22;26811;53.160;8.202;2022-08-19T04:45:06;14.60;99.90
41060;DHT22;26811;53.160;8.202;2022-08-19T04:50:07;14.70;99.90
41060;DHT22;26811;53.160;8.202;2022-08-19T04:55:10;14.80;99.90
41060;DHT22;26811;53.160;8.202;2022-08-19T05:00:11;15.00;99.90
41060;DHT22;26811;53.160;8.202;2022-08-19T05:05:12;15.10;99.90
41060;DHT22;26811;53.160;8.202;2022-08-19T05:10:13;15.30;99.90
41060;DHT22;26811;53.160;8.202;2022-08-19T05:15:14;15.50;99.90
41060;DHT22;26811;53.160;8.202;2022-08-19T05:20:14;15.70;99.90
41060;DHT22;26811;53.160;8.202;2022-08-19T05:25:33;15.80;99.90
41060;DHT22;26811;53.160;8.202;2022-08-19T05:30:34;16.00;99.90
41060;DHT22;26811;53.160;8.202;2022-08-19T05:35:36;16.20;99.90
41060;DHT22;26811;53.160;8.202;2022-08-19T05:40:38;16.50;99.90
41060;DHT22;26811;53.160;8.202;2022-08-19T05:45:40;16.70;99.90
41060;DHT22;26811;53.160;8.202;2022-08-19T05:50:42;16.90;99.90
41060;DHT22;26811;53.160;8.202;2022-08-19T05:55:42;17.00;99.90
41060;DHT22;26811;53.160;8.202;2022-08-19T06:00:44;17.30;99.90
41060;DHT22;26811;53.160;8.202;2022-08-19T06:05:45;17.60;99.90
41060;DHT22;26811;53.160;8.202;2022-08-19T06:10:46;17.80;99.90
41060;DHT22;26811;53.160;8.202;2022-08-19T06:15:47;18.20;99.90
41060;DHT22;26811;53.160;8.202;2022-08-19T06:20:47;18.60;99.90
41060;DHT22;26811;53.160;8.202;2022-08-19T06:25:49;19.10;99.90
41060;DHT22;26811;53.160;8.202;2022-08-19T06:30:49;19.30;99.90
41060;DHT22;26811;53.160;8.202;2022-08-19T06:35:51;19.90;99.90
41060;DHT22;26811;53.160;8.202;2022-08-19T06:41:01;21.10;99.90
41060;DHT22;26811;53.160;8.202;2022-08-19T06:46:02;22.00;99.90
41060;DHT22;26811;53.160;8.202;2022-08-19T06:51:03;21.90;99.90
41060;DHT22;26811;53.160;8.202;2022-08-19T06:56:06;22.10;99.90
41060;DHT22;26811;53.160;8.202;2022-08-19T07:01:07;22.90;99.90
41060;DHT22;26811;53.160;8.202;2022-08-19T07:06:14;23.90;99.90
41060;DHT22;26811;53.160;8.202;2022-08-19T07:11:18;25.20;99.90
41060;DHT22;26811;53.160;8.202;2022-08-19T07:16:19;26.60;99.90
41060;DHT22;26811;53.160;8.202;2022-08-19T07:21:25;27.90;98.30
41060;DHT22;26811;53.160;8.202;2022-08-19T07:26:30;28.30;97.80
41060;DHT22;26811;53.160;8.202;2022-08-19T07:31:32;28.20;96.80
41060;DHT22;26811;53.160;8.202;2022-08-19T07:36:39;28.30;97.80
41060;DHT22;26811;53.160;8.202;2022-08-19T07:41:41;28.40;97.10
41060;DHT22;26811;53.160;8.202;2022-08-19T07:46:43;28.50;97.00
41060;DHT22;26811;53.160;8.202;2022-08-19T07:51:47;28.50;97.50
41060;DHT22;26811;53.160;8.202;2022-08-19T07:56:47;28.50;96.70
41060;DHT22;26811;53.160;8.202;2022-08-19T08:01:50;28.20;96.40
41060;DHT22;26811;53.160;8.202;2022-08-19T08:06:52;27.80;96.60
41060;DHT22;26811;53.160;8.202;2022-08-19T08:12:19;27.70;97.40
41060;DHT22;26811;53.160;8.202;2022-08-19T08:17:23;27.60;97.60
41060;DHT22;26811;53.160;8.202;2022-08-19T08:22:24;28.10;97.50
41060;DHT22;26811;53.160;8.202;2022-08-19T08:27:44;28.10;96.30
41060;DHT22;26811;53.160;8.202;2022-08-19T08:32:46;27.60;96.70
41060;DHT22;26811;53.160;8.202;2022-08-19T08:37:47;26.70;97.30
41060;DHT22;26811;53.160;8.202;2022-08-19T08:43:11;25.30;99.60
41060;DHT22;26811;53.160;8.202;2022-08-19T08:48:22;24.90;99.90
41060;DHT22;26811;53.160;8.202;2022-08-19T08:53:25;25.50;99.90
41060;DHT22;26811;53.160;8.202;2022-08-19T08:58:58;26.30;99.40
41060;DHT22;26811;53.160;8.202;2022-08-19T09:04:00;26.20;98.20
41060;DHT22;26811;53.160;8.202;2022-08-19T09:09:10;26.00;99.00
41060;DHT22;26811;53.160;8.202;2022-08-19T09:19:59;26.00;98.40
41060;DHT22;26811;53.160;8.202;2022-08-19T09:25:03;26.00;99.50
41060;DHT22;26811;53.160;8.202;2022-08-19T09:30:06;27.10;98.00
41060;DHT22;26811;53.160;8.202;2022-08-19T09:35:08;27.60;98.10
41060;DHT22;26811;53.160;8.202;2022-08-19T09:40:10;28.20;96.70
41060;DHT22;26811;53.160;8.202;2022-08-19T09:45:11;28.10;96.00
41060;DHT22;26811;53.160;8.202;2022-08-19T09:50:12;27.60;96.80
41060;DHT22;26811;53.160;8.202;2022-08-19T09:55:13;27.00;97.90
41060;DHT22;26811;53.160;8.202;2022-08-19T10:00:13;27.00;97.70
41060;DHT22;26811;53.160;8.202;2022-08-19T10:05:14;27.30;96.80
41060;DHT22;26811;53.160;8.202;2022-08-19T10:10:35;27.00;96.70
41060;DHT22;26811;53.160;8.202;2022-08-19T10:15:36;26.70;96.90
41060;DHT22;26811;53.160;8.202;2022-08-19T10:20:39;26.60;96.80
41060;DHT22;26811;53.160;8.202;2022-08-19T10:25:42;26.60;96.50
41060;DHT22;26811;53.160;8.202;2022-08-19T10:30:42;26.70;96.20
41060;DHT22;26811;53.160;8.202;2022-08-19T10:35:43;26.90;96.30
41060;DHT22;26811;53.160;8.202;2022-08-19T10:40:44;27.30;96.20
41060;DHT22;26811;53.160;8.202;2022-08-19T10:45:52;27.40;95.70
41060;DHT22;26811;53.160;8.202;2022-08-19T10:50:54;27.40;95.30
41060;DHT22;26811;53.160;8.202;2022-08-19T10:56:13;27.70;95.60
41060;DHT22;26811;53.160;8.202;2022-08-19T11:01:34;27.80;95.50
41060;DHT22;26811;53.160;8.202;2022-08-19T11:06:35;27.50;94.80
41060;DHT22;26811;53.160;8.202;2022-08-19T11:11:37;27.30;95.70
41060;DHT22;26811;53.160;8.202;2022-08-19T11:16:41;27.50;94.80
41060;DHT22;26811;53.160;8.202;2022-08-19T11:21:44;27.40;96.70
41060;DHT22;26811;53.160;8.202;2022-08-19T11:26:45;27.50;96.40
41060;DHT22;26811;53.160;8.202;2022-08-19T11:31:46;27.70;95.10
41060;DHT22;26811;53.160;8.202;2022-08-19T11:36:48;27.30;93.80
41060;DHT22;26811;53.160;8.202;2022-08-19T11:41:49;27.40;95.50
41060;DHT22;26811;53.160;8.202;2022-08-19T11:46:50;27.60;96.10
41060;DHT22;26811;53.160;8.202;2022-08-19T11:51:52;27.60;95.30
41060;DHT22;26811;53.160;8.202;2022-08-19T11:56:53;27.50;94.10
41060;DHT22;26811;53.160;8.202;2022-08-19T12:01:54;27.40;94.50
41060;DHT22;26811;53.160;8.202;2022-08-19T12:06:55;27.60;95.30
41060;DHT22;26811;53.160;8.202;2022-08-19T12:11:56;27.50;95.60
41060;DHT22;26811;53.160;8.202;2022-08-19T12:16:57;27.40;94.80
41060;DHT22;26811;53.160;8.202;2022-08-19T12:22:01;27.30;94.80
41060;DHT22;26811;53.160;8.202;2022-08-19T12:27:03;27.20;95.50
41060;DHT22;26811;53.160;8.202;2022-08-19T12:32:03;27.50;95.70
41060;DHT22;26811;53.160;8.202;2022-08-19T12:37:05;27.50;94.00
41060;DHT22;26811;53.160;8.202;2022-08-19T12:42:06;27.50;94.10
41060;DHT22;26811;53.160;8.202;2022-08-19T12:47:10;27.40;93.50
41060;DHT22;26811;53.160;8.202;2022-08-19T12:52:10;27.40;94.30
41060;DHT22;26811;53.160;8.202;2022-08-19T12:57:11;27.60;93.60
41060;DHT22;26811;53.160;8.202;2022-08-19T13:02:12;27.40;95.10
41060;DHT22;26811;53.160;8.202;2022-08-19T13:07:12;27.20;95.80
41060;DHT22;26811;53.160;8.202;2022-08-19T13:12:13;27.00;97.00
41060;DHT22;26811;53.160;8.202;2022-08-19T13:17:13;26.90;96.20
41060;DHT22;26811;53.160;8.202;2022-08-19T13:22:15;26.90;96.30
41060;DHT22;26811;53.160;8.202;2022-08-19T13:27:16;26.90;95.60
41060;DHT22;26811;53.160;8.202;2022-08-19T13:32:16;27.00;95.70
41060;DHT22;26811;53.160;8.202;2022-08-19T13:37:35;26.70;94.90
41060;DHT22;26811;53.160;8.202;2022-08-19T13:42:43;26.80;94.80
41060;DHT22;26811;53.160;8.202;2022-08-19T13:47:46;26.70;93.50
41060;DHT22;26811;53.160;8.202;2022-08-19T13:52:48;26.80;92.70
41060;DHT22;26811;53.160;8.202;2022-08-19T13:57:53;26.90;93.10
41060;DHT22;26811;53.160;8.202;2022-08-19T14:02:55;26.90;91.90
41060;DHT22;26811;53.160;8.202;2022-08-19T14:07:56;26.90;92.50
41060;DHT22;26811;53.160;8.202;2022-08-19T14:12:59;26.50;93.10
41060;DHT22;26811;53.160;8.202;2022-08-19T14:18:00;26.40;93.60
41060;DHT22;26811;53.160;8.202;2022-08-19T14:23:01;26.60;94.00
41060;DHT22;26811;53.160;8.202;2022-08-19T14:28:02;26.90;94.40
41060;DHT22;26811;53.160;8.202;2022-08-19T14:33:04;26.90;94.30
41060;DHT22;26811;53.160;8.202;2022-08-19T14:38:06;26.90;94.70
41060;DHT22;26811;53.160;8.202;2022-08-19T14:43:06;27.00;94.90
41060;DHT22;26811;53.160;8.202;2022-08-19T14:48:08;27.10;94.00
41060;DHT22;26811;53.160;8.202;2022-08-19T14:53:08;27.10;93.40
41060;DHT22;26811;53.160;8.202;2022-08-19T14:58:09;27.10;94.00
41060;DHT22;26811;53.160;8.202;2022-08-19T15:03:10;27.00;94.30
41060;DHT22;26811;53.160;8.202;2022-08-19T15:08:13;26.90;94.60
41060;DHT22;26811;53.160;8.202;2022-08-19T15:13:14;27.10;93.90
41060;DHT22;26811;53.160;8.202;2022-08-19T15:18:14;27.20;94.20
41060;DHT22;26811;53.160;8.202;2022-08-19T15:23:16;27.30;94.70
41060;DHT22;26811;53.160;8.202;2022-08-19T15:28:17;27.10;94.20
41060;DHT22;26811;53.160;8.202;2022-08-19T15:33:18;27.00;94.60
41060;DHT22;26811;53.160;8.202;2022-08-19T15:38:20;26.70;95.00
41060;DHT22;26811;53.160;8.202;2022-08-19T15:43:25;26.70;94.60
41060;DHT22;26811;53.160;8.202;2022-08-19T15:48:25;26.70;94.40
41060;DHT22;26811;53.160;8.202;2022-08-19T15:53:26;26.60;95.20
41060;DHT22;26811;53.160;8.202;2022-08-19T15:58:26;26.60;95.70
41060;DHT22;26811;53.160;8.202;2022-08-19T16:03:45;26.50;96.10
41060;DHT22;26811;53.160;8.202;2022-08-19T16:09:04;26.40;96.30
41060;DHT22;26811;53.160;8.202;2022-08-19T16:14:05;26.40;95.70
41060;DHT22;26811;53.160;8.202;2022-08-19T16:19:08;26.30;96.50
41060;DHT22;26811;53.160;8.202;2022-08-19T16:24:11;26.10;94.70
41060;DHT22;26811;53.160;8.202;2022-08-19T16:29:13;26.00;94.60
41060;DHT22;26811;53.160;8.202;2022-08-19T16:34:13;25.90;95.30
41060;DHT22;26811;53.160;8.202;2022-08-19T16:39:15;25.70;94.70
41060;DHT22;26811;53.160;8.202;2022-08-19T16:44:17;25.50;94.80
41060;DHT22;26811;53.160;8.202;2022-08-19T16:49:20;25.30;95.10
41060;DHT22;26811;53.160;8.202;2022-08-19T16:54:20;25.10;95.50
41060;DHT22;26811;53.160;8.202;2022-08-19T16:59:21;24.80;95.80
41060;DHT22;26811;53.160;8.202;2022-08-19T17:04:24;24.60;96.10
41060;DHT22;26811;53.160;8.202;2022-08-19T17:09:24;24.40;96.30
41060;DHT22;26811;53.160;8.202;2022-08-19T17:14:25;24.20;96.70
41060;DHT22;26811;53.160;8.202;2022-08-19T17:19:26;24.10;96.80
41060;DHT22;26811;53.160;8.202;2022-08-19T17:24:27;23.90;97.30
41060;DHT22;26811;53.160;8.202;2022-08-19T17:29:28;23.80;98.00
41060;DHT22;26811;53.160;8.202;2022-08-19T17:34:28;23.70;98.90
41060;DHT22;26811;53.160;8.202;2022-08-19T17:39:29;23.50;98.90
41060;DHT22;26811;53.160;8.202;2022-08-19T17:44:30;23.40;99.40
41060;DHT22;26811;53.160;8.202;2022-08-19T17:49:32;23.40;99.30
41060;DHT22;26811;53.160;8.202;2022-08-19T17:54:33;23.50;99.40
41060;DHT22;26811;53.160;8.202;2022-08-19T17:59:34;23.50;99.90
41060;DHT22;26811;53.160;8.202;2022-08-19T18:04:37;23.50;99.50
41060;DHT22;26811;53.160;8.202;2022-08-19T18:09:39;23.60;99.20
41060;DHT22;26811;53.160;8.202;2022-08-19T18:14:40;23.60;98.70
41060;DHT22;26811;53.160;8.202;2022-08-19T18:19:42;23.50;98.10
41060;DHT22;26811;53.160;8.202;2022-08-19T18:24:42;23.50;98.60
41060;DHT22;26811;53.160;8.202;2022-08-19T18:29:43;23.50;99.30
41060;DHT22;26811;53.160;8.202;2022-08-19T18:34:44;23.40;99.80
41060;DHT22;26811;53.160;8.202;2022-08-19T18:39:45;23.30;99.90
41060;DHT22;26811;53.160;8.202;2022-08-19T18:45:05;23.20;99.90
41060;DHT22;26811;53.160;8.202;2022-08-19T18:50:38;23.20;99.90
41060;DHT22;26811;53.160;8.202;2022-08-19T18:55:41;23.20;99.90
41060;DHT22;26811;53.160;8.202;2022-08-19T19:00:42;23.10;99.90
41060;DHT22;26811;53.160;8.202;2022-08-19T19:05:43;22.90;99.90
41060;DHT22;26811;53.160;8.202;2022-08-19T19:10:43;22.80;99.90
41060;DHT22;26811;53.160;8.202;2022-08-19T19:15:44;22.60;99.90
41060;DHT22;26811;53.160;8.202;2022-08-19T19:20:45;22.60;99.90
41060;DHT22;26811;53.160;8.202;2022-08-19T19:25:45;22.50;99.90
41060;DHT22;26811;53.160;8.202;2022-08-19T19:30:46;22.40;99.90
41060;DHT22;26811;53.160;8.202;2022-08-19T19:35:46;22.20;99.90
41060;DHT22;26811;53.160;8.202;2022-08-19T19:40:47;22.20;99.90
41060;DHT22;26811;53.160;8.202;2022-08-19T19:45:48;22.20;99.90
41060;DHT22;26811;53.160;8.202;2022-08-19T19:50:49;22.10;99.90
41060;DHT22;26811;53.160;8.202;2022-08-19T19:55:49;22.10;99.90
41060;DHT22;26811;53.160;8.202;2022-08-19T20:00:50;22.00;99.90
41060;DHT22;26811;53.160;8.202;2022-08-19T20:05:51;21.90;99.90
41060;DHT22;26811;53.160;8.202;2022-08-19T20:10:52;21.80;99.90
41060;DHT22;26811;53.160;8.202;2022-08-19T20:15:52;21.60;99.90
41060;DHT22;26811;53.160;8.202;2022-08-19T20:20:53;21.50;99.90
41060;DHT22;26811;53.160;8.202;2022-08-19T20:25:53;21.40;99.90
41060;DHT22;26811;53.160;8.202;2022-08-19T20:30:54;21.30;99.90
41060;DHT22;26811;53.160;8.202;2022-08-19T20:35:55;21.20;99.90
41060;DHT22;26811;53.160;8.202;2022-08-19T20:40:56;21.10;99.90
41060;DHT22;26811;53.160;8.202;2022-08-19T20:45:56;21.00;99.90
41060;DHT22;26811;53.160;8.202;2022-08-19T20:50:57;21.00;99.90
41060;DHT22;26811;53.160;8.202;2022-08-19T20:55:58;20.90;99.90
41060;DHT22;26811;53.160;8.202;2022-08-19T21:01:00;20.80;99.90
41060;DHT22;26811;53.160;8.202;2022-08-19T21:06:01;20.80;99.90
41060;DHT22;26811;53.160;8.202;2022-08-19T21:11:02;20.70;99.90
41060;DHT22;26811;53.160;8.202;2022-08-19T21:16:03;20.70;99.90
41060;DHT22;26811;53.160;8.202;2022-08-19T21:21:04;20.70;99.90
41060;DHT22;26811;53.160;8.202;2022-08-19T21:26:05;20.70;99.90
41060;DHT22;26811;53.160;8.202;2022-08-19T21:31:06;20.80;99.90
41060;DHT22;26811;53.160;8.202;2022-08-19T21:36:09;20.90;99.90
41060;DHT22;26811;53.160;8.202;2022-08-19T21:41:10;20.90;99.90
41060;DHT22;26811;53.160;8.202;2022-08-19T21:46:10;20.90;99.90
41060;DHT22;26811;53.160;8.202;2022-08-19T21:51:11;20.90;99.90
41060;DHT22;26811;53.160;8.202;2022-08-19T21:56:11;20.90;99.90
41060;DHT22;26811;53.160;8.202;2022-08-19T22:01:12;20.90;99.90
41060;DHT22;26811;53.160;8.202;2022-08-19T22:06:13;20.90;99.90
41060;DHT22;26811;53.160;8.202;2022-08-19T22:11:13;20.90;99.90
41060;DHT22;26811;53.160;8.202;2022-08-19T22:16:14;20.80;99.90
41060;DHT22;26811;53.160;8.202;2022-08-19T22:21:18;20.90;99.90
41060;DHT22;26811;53.160;8.202;2022-08-19T22:26:19;20.90;99.90
41060;DHT22;26811;53.160;8.202;2022-08-19T22:31:20;20.90;99.90
41060;DHT22;26811;53.160;8.202;2022-08-19T22:36:23;20.90;99.90
41060;DHT22;26811;53.160;8.202;2022-08-19T22:41:26;20.90;99.90
41060;DHT22;26811;53.160;8.202;2022-08-19T22:46:27;20.90;99.90
41060;DHT22;26811;53.160;8.202;2022-08-19T22:51:28;20.90;99.90
41060;DHT22;26811;53.160;8.202;2022-08-19T22:56:47;20.60;99.90
41060;DHT22;26811;53.160;8.202;2022-08-19T23:01:47;20.30;99.90
41060;DHT22;26811;53.160;8.202;2022-08-19T23:06:48;19.90;99.90
41060;DHT22;26811;53.160;8.202;2022-08-19T23:11:52;19.70;99.90
41060;DHT22;26811;53.160;8.202;2022-08-19T23:16:53;19.50;99.90
41060;DHT22;26811;53.160;8.202;2022-08-19T23:21:53;19.30;99.90
41060;DHT22;26811;53.160;8.202;2022-08-19T23:26:55;19.30;99.90
41060;DHT22;26811;53.160;8.202;2022-08-19T23:32:16;19.30;99.90
41060;DHT22;26811;53.160;8.202;2022-08-19T23:37:16;19.30;99.90
41060;DHT22;26811;53.160;8.202;2022-08-19T23:42:17;19.30;99.90
41060;DHT22;26811;53.160;8.202;2022-08-19T23:47:20;19.30;99.90
41060;DHT22;26811;53.160;8.202;2022-08-19T23:52:20;19.40;99.90
41060;DHT22;26811;53.160;8.202;2022-08-19T23:57:21;19.40;99.90
